createdAt,value
2023-11-27T00:01:10.869Z,23.40
2023-11-27T00:03:40.135Z,23.40
2023-11-27T00:06:10.274Z,23.40
2023-11-27T00:08:40.034Z,23.40
2023-11-27T00:11:08.908Z,23.40
2023-11-27T00:13:37.398Z,23.40
2023-11-27T00:16:07.794Z,23.40
2023-11-27T00:18:36.308Z,23.40
2023-11-27T00:21:04.853Z,23.40
2023-11-27T00:23:33.185Z,23.40
2023-11-27T00:26:03.011Z,23.40
2023-11-27T00:28:31.488Z,23.40
2023-11-27T00:31:00.122Z,23.30
2023-11-27T00:33:28.516Z,23.30
2023-11-27T00:35:56.902Z,23.30
2023-11-27T00:38:25.215Z,23.30
2023-11-27T00:40:53.725Z,23.30
2023-11-27T00:43:23.491Z,23.30
2023-11-27T00:45:51.975Z,23.30
2023-11-27T00:48:20.402Z,23.20
2023-11-27T00:50:48.766Z,23.20
2023-11-27T00:53:20.225Z,23.20
2023-11-27T00:55:49.357Z,23.20
2023-11-27T00:58:17.969Z,23.20
2023-11-27T01:00:47.775Z,23.20
2023-11-27T01:03:16.300Z,23.20
2023-11-27T01:05:44.951Z,23.20
2023-11-27T01:08:14.682Z,23.20
2023-11-27T01:10:44.095Z,23.20
2023-11-27T01:13:12.987Z,23.20
2023-11-27T01:15:42.405Z,23.20
2023-11-27T01:18:12.372Z,23.20
2023-11-27T01:20:41.432Z,23.20
2023-11-27T01:23:09.858Z,23.20
2023-11-27T01:25:38.282Z,23.20
2023-11-27T01:28:07.274Z,23.20
2023-11-27T01:30:35.702Z,23.20
2023-11-27T01:33:06.433Z,23.20
2023-11-27T01:35:36.395Z,23.10
2023-11-27T01:38:04.769Z,23.10
2023-11-27T01:40:33.206Z,23.10
2023-11-27T01:43:01.871Z,23.10
2023-11-27T01:45:33.139Z,23.10
2023-11-27T01:48:01.852Z,23.10
2023-11-27T01:50:30.370Z,23.10
2023-11-27T01:53:00.709Z,23.00
2023-11-27T01:55:30.142Z,23.00
2023-11-27T01:57:59.014Z,23.10
2023-11-27T02:00:27.425Z,23.10
2023-11-27T02:02:56.973Z,23.10
2023-11-27T02:05:25.493Z,23.00
2023-11-27T02:07:54.329Z,23.10
2023-11-27T02:10:24.143Z,23.10
2023-11-27T02:12:52.655Z,23.00
2023-11-27T02:15:21.123Z,23.10
2023-11-27T02:17:49.917Z,23.00
2023-11-27T02:20:18.456Z,23.00
2023-11-27T02:22:47.694Z,23.00
2023-11-27T02:25:17.472Z,23.00
2023-11-27T02:27:45.929Z,23.10
2023-11-27T02:30:14.994Z,23.00
2023-11-27T02:32:43.437Z,23.00
2023-11-27T02:35:12.084Z,23.00
2023-11-27T02:37:40.936Z,23.00
2023-11-27T02:40:12.626Z,23.00
2023-11-27T02:42:56.428Z,23.00
2023-11-27T02:45:24.769Z,23.00
2023-11-27T02:47:53.383Z,22.90
2023-11-27T02:50:22.020Z,23.00
2023-11-27T02:52:51.053Z,23.00
2023-11-27T02:55:20.854Z,23.00
2023-11-27T02:57:50.928Z,23.00
2023-11-27T03:00:22.459Z,23.00
2023-11-27T03:02:51.049Z,23.00
2023-11-27T03:05:20.598Z,23.00
2023-11-27T03:07:49.075Z,22.90
2023-11-27T03:10:18.246Z,22.90
2023-11-27T03:12:46.702Z,22.90
2023-11-27T03:15:17.039Z,22.90
2023-11-27T03:17:46.598Z,22.90
2023-11-27T03:20:15.544Z,23.00
2023-11-27T03:22:44.436Z,22.90
2023-11-27T03:25:12.830Z,22.90
2023-11-27T03:27:42.007Z,22.90
2023-11-27T03:30:12.206Z,22.90
2023-11-27T03:32:42.034Z,22.90
2023-11-27T03:35:11.044Z,22.90
2023-11-27T03:37:39.550Z,22.90
2023-11-27T03:40:09.660Z,22.90
2023-11-27T03:42:38.030Z,22.80
2023-11-27T03:45:07.716Z,22.80
2023-11-27T03:47:36.145Z,22.80
2023-11-27T03:50:06.999Z,22.90
2023-11-27T03:52:35.528Z,22.90
2023-11-27T03:55:04.033Z,22.90
2023-11-27T03:57:32.542Z,22.90
2023-11-27T04:00:01.663Z,22.80
2023-11-27T04:02:30.210Z,22.80
2023-11-27T04:04:59.415Z,22.80
2023-11-27T04:07:29.579Z,22.80
2023-11-27T04:09:58.097Z,22.80
2023-11-27T04:12:26.525Z,22.80
2023-11-27T04:14:53.941Z,22.80
2023-11-27T04:17:22.339Z,22.80
2023-11-27T04:19:50.669Z,22.80
2023-11-27T04:22:19.258Z,22.70
2023-11-27T04:24:49.958Z,22.70
2023-11-27T04:27:18.409Z,22.80
2023-11-27T04:29:46.815Z,22.70
2023-11-27T04:32:15.170Z,22.70
2023-11-27T04:34:43.715Z,22.70
2023-11-27T04:37:15.928Z,22.70
2023-11-27T04:39:44.787Z,22.70
2023-11-27T04:42:14.504Z,22.80
2023-11-27T04:44:43.020Z,22.80
2023-11-27T04:47:11.449Z,22.80
2023-11-27T04:49:40.018Z,22.90
2023-11-27T04:52:09.043Z,22.90
2023-11-27T04:54:39.376Z,22.90
2023-11-27T04:57:09.256Z,22.90
2023-11-27T04:59:39.014Z,22.90
2023-11-27T05:02:07.491Z,22.90
2023-11-27T05:04:36.004Z,22.90
2023-11-27T05:07:04.710Z,22.80
2023-11-27T05:09:34.298Z,22.90
2023-11-27T05:12:02.746Z,22.80
2023-11-27T05:14:31.145Z,22.80
2023-11-27T05:17:00.981Z,22.80
2023-11-27T05:19:31.243Z,22.80
2023-11-27T05:21:59.940Z,22.80
2023-11-27T05:24:28.877Z,22.80
2023-11-27T05:27:01.955Z,22.70
2023-11-27T05:29:31.855Z,22.80
2023-11-27T05:32:08.790Z,22.80
2023-11-27T05:34:37.724Z,22.80
2023-11-27T05:37:07.824Z,22.80
2023-11-27T05:39:36.935Z,22.80
2023-11-27T05:42:05.739Z,22.80
2023-11-27T05:44:34.106Z,22.80
2023-11-27T05:47:04.655Z,22.80
2023-11-27T05:49:33.267Z,22.80
2023-11-27T05:52:01.815Z,22.70
2023-11-27T05:54:30.196Z,22.70
2023-11-27T05:56:58.851Z,22.70
2023-11-27T05:59:27.559Z,22.70
2023-11-27T06:01:55.944Z,22.70
2023-11-27T06:04:25.802Z,22.70
2023-11-27T06:06:54.502Z,22.70
2023-11-27T06:09:23.464Z,22.70
2023-11-27T06:11:52.262Z,22.60
2023-11-27T06:14:20.661Z,22.60
2023-11-27T06:16:49.196Z,22.60
2023-11-27T06:19:17.881Z,22.70
2023-11-27T06:21:47.574Z,22.70
2023-11-27T06:24:16.058Z,22.70
2023-11-27T06:26:44.540Z,22.70
2023-11-27T06:29:12.939Z,22.70
2023-11-27T06:31:41.428Z,22.70
2023-11-27T06:34:09.835Z,22.70
2023-11-27T06:36:38.214Z,22.70
2023-11-27T06:39:09.166Z,22.60
2023-11-27T06:41:37.527Z,22.70
2023-11-27T06:44:06.148Z,22.70
2023-11-27T06:46:34.665Z,22.70
2023-11-27T06:49:05.558Z,22.70
2023-11-27T06:51:33.996Z,22.70
2023-11-27T06:54:02.359Z,22.90
2023-11-27T06:56:34.655Z,23.10
2023-11-27T06:59:04.350Z,23.20
2023-11-27T07:01:32.733Z,23.30
2023-11-27T07:04:01.964Z,23.30
2023-11-27T07:06:30.861Z,23.40
2023-11-27T07:09:00.474Z,23.40
2023-11-27T07:11:29.876Z,23.40
2023-11-27T07:13:59.750Z,23.50
2023-11-27T07:16:28.764Z,23.50
2023-11-27T07:18:58.602Z,23.50
2023-11-27T07:21:28.475Z,23.40
2023-11-27T07:23:57.712Z,23.40
2023-11-27T07:26:26.605Z,23.40
2023-11-27T07:28:56.809Z,23.30
2023-11-27T07:31:29.008Z,23.30
2023-11-27T07:33:57.757Z,23.30
2023-11-27T07:36:28.372Z,23.20
2023-11-27T07:38:57.202Z,23.20
2023-11-27T07:41:25.860Z,23.20
2023-11-27T07:43:54.288Z,23.20
2023-11-27T07:46:22.700Z,23.20
2023-11-27T07:48:52.540Z,23.10
2023-11-27T07:51:21.114Z,23.10
2023-11-27T07:53:49.715Z,23.10
2023-11-27T07:56:28.906Z,23.10
2023-11-27T07:58:57.692Z,23.10
2023-11-27T08:01:27.137Z,23.10
2023-11-27T08:03:59.072Z,23.00
2023-11-27T08:06:27.751Z,23.00
2023-11-27T08:08:57.060Z,23.00
2023-11-27T08:11:34.064Z,23.00
2023-11-27T08:14:02.608Z,23.00
2023-11-27T08:16:31.703Z,23.00
2023-11-27T08:19:01.486Z,23.00
2023-11-27T08:21:29.889Z,23.00
2023-11-27T08:23:59.410Z,22.90
2023-11-27T08:26:40.527Z,22.90
2023-11-27T08:29:09.273Z,22.90
2023-11-27T08:31:38.213Z,22.90
2023-11-27T08:34:08.900Z,22.90
2023-11-27T08:36:39.509Z,22.80
2023-11-27T08:39:11.702Z,22.80
2023-11-27T08:41:40.165Z,22.80
2023-11-27T08:44:09.764Z,22.80
2023-11-27T08:46:38.491Z,22.80
2023-11-27T08:49:08.592Z,22.80
2023-11-27T08:51:37.068Z,22.80
2023-11-27T08:54:05.720Z,22.80
2023-11-27T08:56:35.266Z,22.80
2023-11-27T08:59:03.979Z,22.80
2023-11-27T09:01:32.440Z,22.80
2023-11-27T09:04:00.848Z,22.80
2023-11-27T09:06:31.086Z,22.80
2023-11-27T09:09:00.659Z,22.80
2023-11-27T09:11:32.663Z,22.80
2023-11-27T09:14:02.180Z,22.80
2023-11-27T09:16:30.686Z,22.80
2023-11-27T09:18:59.121Z,22.80
2023-11-27T09:21:27.566Z,22.80
2023-11-27T09:23:58.013Z,22.80
2023-11-27T09:26:26.462Z,22.70
2023-11-27T09:28:54.926Z,22.70
2023-11-27T09:31:24.358Z,22.70
2023-11-27T09:33:52.787Z,22.70
2023-11-27T09:36:21.330Z,22.70
2023-11-27T09:38:50.604Z,22.70
2023-11-27T09:41:20.418Z,22.70
2023-11-27T09:43:48.971Z,22.70
2023-11-27T09:46:21.331Z,22.70
2023-11-27T09:48:55.005Z,22.70
2023-11-27T09:51:26.441Z,22.70
2023-11-27T09:53:58.453Z,22.70
2023-11-27T09:56:30.007Z,22.70
2023-11-27T09:59:00.925Z,22.70
2023-11-27T10:01:30.686Z,22.70
2023-11-27T10:04:01.608Z,22.70
2023-11-27T10:06:34.970Z,22.70
2023-11-27T10:09:08.843Z,22.70
2023-11-27T10:11:39.056Z,22.70
2023-11-27T10:16:41.718Z,22.70
2023-11-27T10:19:17.529Z,22.70
2023-11-27T10:21:45.906Z,22.70
2023-11-27T10:24:15.039Z,22.70
2023-11-27T10:26:46.216Z,22.70
2023-11-27T10:29:25.901Z,22.60
2023-11-27T10:31:59.407Z,22.60
2023-11-27T10:34:28.628Z,22.60
2023-11-27T10:37:01.833Z,22.60
2023-11-27T10:39:34.376Z,22.60
2023-11-27T10:42:08.767Z,22.60
2023-11-27T10:44:38.732Z,22.60
2023-11-27T10:47:09.760Z,22.60
2023-11-27T10:49:41.098Z,22.60
2023-11-27T10:52:12.052Z,22.60
2023-11-27T10:54:43.532Z,22.60
2023-11-27T10:57:15.113Z,22.60
2023-11-27T10:59:45.458Z,22.60
2023-11-27T11:02:14.479Z,22.60
2023-11-27T11:04:52.889Z,22.60
2023-11-27T11:07:27.525Z,22.60
2023-11-27T11:09:57.445Z,22.60
2023-11-27T11:12:29.165Z,22.60
2023-11-27T11:14:58.742Z,22.60
2023-11-27T11:17:38.112Z,22.60
2023-11-27T11:20:20.430Z,22.60
2023-11-27T11:22:59.924Z,22.70
2023-11-27T11:25:37.932Z,22.70
2023-11-27T11:28:15.282Z,22.60
2023-11-27T11:30:43.721Z,22.60
2023-11-27T11:33:19.399Z,22.60
2023-11-27T11:35:52.071Z,22.60
2023-11-27T11:38:23.509Z,22.60
2023-11-27T11:40:52.777Z,22.60
2023-11-27T11:43:23.897Z,22.60
2023-11-27T11:45:54.406Z,22.60
2023-11-27T11:48:36.714Z,22.60
2023-11-27T11:51:16.714Z,22.50
2023-11-27T11:53:48.762Z,22.50
2023-11-27T11:56:20.783Z,22.60
2023-11-27T11:58:52.737Z,22.60
2023-11-27T12:01:21.315Z,22.60
2023-11-27T12:03:51.531Z,22.60
2023-11-27T12:06:19.957Z,22.50
2023-11-27T12:08:49.884Z,22.50
2023-11-27T12:11:18.342Z,22.50
2023-11-27T12:13:45.932Z,22.50
2023-11-27T12:16:18.312Z,22.50
2023-11-27T12:18:53.244Z,22.50
2023-11-27T12:21:25.007Z,22.50
2023-11-27T12:23:54.786Z,22.60
2023-11-27T12:26:25.025Z,22.50
2023-11-27T12:28:54.497Z,22.50
2023-11-27T12:31:28.826Z,22.50
2023-11-27T12:33:58.464Z,22.50
2023-11-27T12:36:27.558Z,22.50
2023-11-27T12:38:56.137Z,22.50
2023-11-27T12:41:34.150Z,22.50
2023-11-27T12:44:14.805Z,22.50
2023-11-27T12:46:50.869Z,22.50
2023-11-27T12:49:22.004Z,22.50
2023-11-27T12:51:53.202Z,22.50
2023-11-27T12:54:24.105Z,22.50
2023-11-27T12:56:53.857Z,22.50
2023-11-27T12:59:25.113Z,22.50
2023-11-27T13:01:58.778Z,22.50
2023-11-27T13:04:31.154Z,22.50
2023-11-27T13:07:01.101Z,22.50
2023-11-27T13:09:29.957Z,22.60
2023-11-27T13:11:58.564Z,22.60
2023-11-27T13:14:26.979Z,22.60
2023-11-27T13:16:56.861Z,22.60
2023-11-27T13:19:26.094Z,22.70
2023-11-27T13:21:56.721Z,22.70
2023-11-27T13:24:31.349Z,22.70
2023-11-27T13:27:06.284Z,22.70
2023-11-27T13:29:34.683Z,22.70
2023-11-27T13:32:04.685Z,22.60
2023-11-27T13:34:38.119Z,22.60
2023-11-27T13:37:09.963Z,22.60
2023-11-27T13:39:42.267Z,22.60
2023-11-27T13:42:10.816Z,22.60
2023-11-27T13:44:39.411Z,22.70
2023-11-27T13:47:10.686Z,22.70
2023-11-27T13:49:42.306Z,22.70
2023-11-27T13:52:15.727Z,22.70
2023-11-27T13:54:49.791Z,22.70
2023-11-27T13:57:28.493Z,22.70
2023-11-27T13:59:58.841Z,22.60
2023-11-27T14:02:30.363Z,22.60
2023-11-27T14:05:07.782Z,22.60
2023-11-27T14:07:42.416Z,22.60
2023-11-27T14:10:26.836Z,22.60
2023-11-27T14:13:02.526Z,22.60
2023-11-27T14:15:40.923Z,22.60
2023-11-27T14:18:46.554Z,22.60
2023-11-27T14:21:47.485Z,22.60
2023-11-27T14:24:18.543Z,22.60
2023-11-27T14:27:18.047Z,22.60
2023-11-27T14:29:50.110Z,22.50
2023-11-27T14:32:18.073Z,22.50
2023-11-27T14:34:52.929Z,22.50
2023-11-27T14:37:22.480Z,22.60
2023-11-27T14:39:52.038Z,22.60
2023-11-27T14:42:21.424Z,22.60
2023-11-27T14:44:50.239Z,22.60
2023-11-27T14:47:22.957Z,22.60
2023-11-27T14:49:57.014Z,22.50
2023-11-27T14:52:28.987Z,22.60
2023-11-27T14:54:59.679Z,22.60
2023-11-27T14:57:30.133Z,22.60
2023-11-27T15:00:02.394Z,22.60
2023-11-27T15:02:31.246Z,22.60
2023-11-27T15:05:01.149Z,22.60
2023-11-27T15:07:29.685Z,22.60
2023-11-27T15:09:58.181Z,22.60
2023-11-27T15:12:33.418Z,22.50
2023-11-27T15:15:01.822Z,22.50
2023-11-27T15:17:30.730Z,22.50
2023-11-27T15:20:00.835Z,22.50
2023-11-27T15:22:29.230Z,22.50
2023-11-27T15:24:57.775Z,22.50
2023-11-27T15:27:27.593Z,22.60
2023-11-27T15:29:57.275Z,22.50
2023-11-27T15:32:26.873Z,22.60
2023-11-27T15:34:55.912Z,22.60
2023-11-27T15:37:27.201Z,22.60
2023-11-27T15:39:58.380Z,22.60
2023-11-27T15:42:28.247Z,22.60
2023-11-27T15:44:56.813Z,22.60
2023-11-27T15:47:25.848Z,22.60
2023-11-27T15:49:54.447Z,22.60
2023-11-27T15:52:22.927Z,22.50
2023-11-27T15:54:52.707Z,22.50
2023-11-27T15:57:20.998Z,22.50
2023-11-27T15:59:49.320Z,22.50
2023-11-27T16:02:17.844Z,22.50
2023-11-27T16:04:47.562Z,22.50
2023-11-27T16:07:15.960Z,22.50
2023-11-27T16:09:44.345Z,22.50
2023-11-27T16:12:15.227Z,22.50
2023-11-27T16:14:43.946Z,22.40
2023-11-27T16:17:14.813Z,22.50
2023-11-27T16:19:43.452Z,22.40
2023-11-27T16:22:11.870Z,22.40
2023-11-27T16:24:40.214Z,22.40
2023-11-27T16:27:08.533Z,22.40
2023-11-27T16:29:38.332Z,22.40
2023-11-27T16:32:08.731Z,22.40
2023-11-27T16:34:37.361Z,22.50
2023-11-27T16:37:06.035Z,22.50
2023-11-27T16:39:34.309Z,22.50
2023-11-27T16:42:05.388Z,22.50
2023-11-27T16:44:33.801Z,22.50
2023-11-27T16:47:03.596Z,22.50
2023-11-27T16:49:32.077Z,22.50
2023-11-27T16:52:00.556Z,22.50
2023-11-27T16:54:28.989Z,22.50
2023-11-27T16:56:57.488Z,22.50
2023-11-27T16:59:25.946Z,22.40
2023-11-27T17:01:54.634Z,22.40
2023-11-27T17:04:25.826Z,22.40
2023-11-27T17:06:54.297Z,22.40
2023-11-27T17:09:23.430Z,22.40
2023-11-27T17:11:51.874Z,22.40
2023-11-27T17:14:20.575Z,22.30
2023-11-27T17:16:52.562Z,22.30
2023-11-27T17:19:22.508Z,22.30
2023-11-27T17:21:52.274Z,22.30
2023-11-27T17:24:21.310Z,22.30
2023-11-27T17:26:49.716Z,22.30
2023-11-27T17:29:18.831Z,22.30
2023-11-27T17:31:47.266Z,22.40
2023-11-27T17:34:15.773Z,22.40
2023-11-27T17:36:45.165Z,22.50
2023-11-27T17:39:14.997Z,22.40
2023-11-27T17:41:43.553Z,22.50
2023-11-27T17:44:12.048Z,22.50
2023-11-27T17:46:40.728Z,22.60
2023-11-27T17:49:09.311Z,22.60
2023-11-27T17:51:38.424Z,22.60
2023-11-27T17:54:07.060Z,22.70
2023-11-27T17:56:40.671Z,22.70
2023-11-27T17:59:13.858Z,22.70
2023-11-27T18:01:42.403Z,22.70
2023-11-27T18:04:10.857Z,22.70
2023-11-27T18:06:41.862Z,22.70
2023-11-27T18:09:12.702Z,22.70
2023-11-27T18:11:42.914Z,22.80
2023-11-27T18:14:11.846Z,22.80
2023-11-27T18:16:40.641Z,22.90
2023-11-27T18:19:09.746Z,22.80
2023-11-27T18:21:40.309Z,22.80
2023-11-27T18:24:10.124Z,22.80
2023-11-27T18:26:38.942Z,22.90
2023-11-27T18:29:10.018Z,22.90
2023-11-27T18:31:38.427Z,23.00
2023-11-27T18:34:06.850Z,23.00
2023-11-27T18:36:35.662Z,23.00
2023-11-27T18:39:04.460Z,23.00
2023-11-27T18:41:33.095Z,23.10
2023-11-27T18:44:01.784Z,23.10
2023-11-27T18:46:32.007Z,23.10
2023-11-27T18:49:00.654Z,23.10
2023-11-27T18:51:29.069Z,23.10
2023-11-27T18:53:57.469Z,23.10
2023-11-27T18:56:25.868Z,23.10
2023-11-27T18:58:55.044Z,23.10
2023-11-27T19:01:24.816Z,23.10
2023-11-27T19:03:54.954Z,23.10
2023-11-27T19:06:24.140Z,23.10
2023-11-27T19:08:52.648Z,23.00
2023-11-27T19:11:21.496Z,23.00
2023-11-27T19:13:49.992Z,23.00
2023-11-27T19:16:18.631Z,23.00
2023-11-27T19:18:51.871Z,23.00
2023-11-27T19:21:21.861Z,23.00
2023-11-27T19:23:50.217Z,23.00
2023-11-27T19:26:18.703Z,23.00
2023-11-27T19:28:48.979Z,23.00
2023-11-27T19:31:17.734Z,22.90
2023-11-27T19:33:47.593Z,22.90
2023-11-27T19:36:23.545Z,22.90
2023-11-27T19:38:52.059Z,22.90
2023-11-27T19:41:22.965Z,22.80
2023-11-27T19:43:51.538Z,22.80
2023-11-27T19:46:20.941Z,22.80
2023-11-27T19:48:51.613Z,22.90
2023-11-27T19:51:21.485Z,22.90
2023-11-27T19:53:49.913Z,22.90
2023-11-27T19:56:19.409Z,22.90
2023-11-27T19:58:47.803Z,22.90
2023-11-27T20:01:17.126Z,22.90
2023-11-27T20:03:45.777Z,22.90
2023-11-27T20:06:14.227Z,23.00
2023-11-27T20:08:43.951Z,23.00
2023-11-27T20:11:15.526Z,23.10
2023-11-27T20:13:44.982Z,23.10
2023-11-27T20:16:13.594Z,23.10
2023-11-27T20:18:41.966Z,23.10
2023-11-27T20:21:10.363Z,23.00
2023-11-27T20:23:40.025Z,23.00
2023-11-27T20:26:10.028Z,23.10
2023-11-27T20:28:38.494Z,23.00
2023-11-27T20:31:07.032Z,23.00
2023-11-27T20:33:36.883Z,23.00
2023-11-27T20:36:05.751Z,23.00
2023-11-27T20:38:35.324Z,23.00
2023-11-27T20:41:04.493Z,22.90
2023-11-27T20:46:17.798Z,22.70
2023-11-27T20:48:50.621Z,22.70
2023-11-27T20:51:19.075Z,22.70
2023-11-27T20:53:47.461Z,22.70
2023-11-27T20:56:15.914Z,22.70
2023-11-27T20:58:47.177Z,22.70
2023-11-27T21:01:19.034Z,22.70
2023-11-27T21:03:49.396Z,22.70
2023-11-27T21:06:20.453Z,22.70
2023-11-27T21:08:50.029Z,22.70
2023-11-27T21:11:21.126Z,22.70
2023-11-27T21:13:49.991Z,22.70
2023-11-27T21:16:21.294Z,22.70
2023-11-27T21:18:50.649Z,22.70
2023-11-27T21:21:19.931Z,22.70
2023-11-27T21:23:48.343Z,22.70
2023-11-27T21:26:16.706Z,22.70
2023-11-27T21:28:45.266Z,22.70
2023-11-27T21:31:15.726Z,22.70
2023-11-27T21:33:46.431Z,22.60
2023-11-27T21:36:14.933Z,22.70
2023-11-27T21:38:43.366Z,22.70
2023-11-27T21:41:11.982Z,22.70
2023-11-27T21:43:40.481Z,22.70
2023-11-27T21:46:09.470Z,22.70
2023-11-27T21:48:37.952Z,22.70
2023-11-27T21:51:08.323Z,22.70
2023-11-27T21:53:36.862Z,22.70
2023-11-27T21:56:06.213Z,22.70
2023-11-27T21:58:34.721Z,22.60
2023-11-27T22:01:15.553Z,22.60
2023-11-27T22:03:46.363Z,22.60
2023-11-27T22:06:16.463Z,22.60
2023-11-27T22:08:45.311Z,22.60
2023-11-27T22:11:13.749Z,22.70
2023-11-27T22:13:42.964Z,22.60
2023-11-27T22:16:12.563Z,22.60
2023-11-27T22:18:41.099Z,22.60
2023-11-27T22:21:10.370Z,22.60
2023-11-27T22:23:40.229Z,22.60
2023-11-27T22:26:08.846Z,22.60
2023-11-27T22:28:37.312Z,22.60
2023-11-27T22:31:06.452Z,22.60
2023-11-27T22:33:35.052Z,22.60
2023-11-27T22:36:03.572Z,22.60
2023-11-27T22:38:32.188Z,22.60
2023-11-27T22:41:02.101Z,22.60
2023-11-27T22:43:30.817Z,22.50
2023-11-27T22:45:59.399Z,22.50
2023-11-27T22:48:29.885Z,22.50
2023-11-27T22:51:00.212Z,22.50
2023-11-27T22:53:30.172Z,22.50
2023-11-27T22:55:59.210Z,22.50
2023-11-27T22:58:29.646Z,22.50
2023-11-27T23:00:58.126Z,22.50
2023-11-27T23:03:27.355Z,22.50
2023-11-27T23:05:56.595Z,22.50
2023-11-27T23:08:24.940Z,22.50
2023-11-27T23:10:53.626Z,22.50
2023-11-27T23:13:22.138Z,22.40
2023-11-27T23:15:51.902Z,22.40
2023-11-27T23:18:20.418Z,22.40
2023-11-27T23:20:48.890Z,22.40
2023-11-27T23:23:17.733Z,22.50
2023-11-27T23:25:46.877Z,22.50
2023-11-27T23:28:15.847Z,22.50
2023-11-27T23:30:45.012Z,22.50
2023-11-27T23:33:14.800Z,22.50
2023-11-27T23:35:45.423Z,22.50
2023-11-27T23:38:15.725Z,22.40
2023-11-27T23:40:44.555Z,22.40
2023-11-27T23:43:13.197Z,22.40
2023-11-27T23:45:41.788Z,22.40
2023-11-27T23:48:10.380Z,22.30
2023-11-27T23:50:43.375Z,22.30
2023-11-27T23:53:12.209Z,22.30
2023-11-27T23:55:41.335Z,22.30
2023-11-27T23:58:09.852Z,22.30
